createdAt,value
2023-02-05T00:01:32.925Z,14.70
2023-02-05T00:04:00.159Z,15.85
2023-02-05T00:06:27.488Z,12.98
2023-02-05T00:08:55.663Z,14.82
2023-02-05T00:11:22.698Z,10.05
2023-02-05T00:13:49.645Z,13.27
2023-02-05T00:16:19.088Z,13.00
2023-02-05T00:18:50.044Z,15.07
2023-02-05T00:21:18.002Z,14.48
2023-02-05T00:23:45.058Z,12.60
2023-02-05T00:26:15.849Z,21.85
2023-02-05T00:28:42.887Z,11.63
2023-02-05T00:31:18.070Z,12.75
2023-02-05T00:33:45.707Z,14.43
2023-02-05T00:36:13.359Z,16.33
2023-02-05T00:38:43.227Z,23.70
2023-02-05T00:41:11.569Z,12.82
2023-02-05T00:43:40.067Z,23.80
2023-02-05T00:46:08.038Z,18.58
2023-02-05T00:48:35.022Z,16.42
2023-02-05T00:51:05.893Z,17.92
2023-02-05T00:53:33.633Z,19.27
2023-02-05T00:56:00.697Z,19.60
2023-02-05T00:58:28.008Z,16.67
2023-02-05T01:00:57.246Z,19.35
2023-02-05T01:03:24.271Z,15.50
2023-02-05T01:05:51.207Z,16.42
2023-02-05T01:08:18.243Z,18.15
2023-02-05T01:10:49.040Z,16.38
2023-02-05T01:13:18.033Z,19.75
2023-02-05T01:15:45.592Z,17.08
2023-02-05T01:18:13.126Z,16.73
2023-02-05T01:20:42.168Z,14.80
2023-02-05T01:23:09.481Z,17.63
2023-02-05T01:25:36.702Z,18.80
2023-02-05T01:28:07.126Z,19.80
2023-02-05T01:30:35.317Z,33.88
2023-02-05T01:33:08.107Z,23.40
2023-02-05T01:35:38.159Z,20.38
2023-02-05T01:40:47.822Z,22.63
2023-02-05T01:43:17.081Z,26.00
2023-02-05T01:46:24.245Z,19.58
2023-02-05T01:48:54.892Z,27.42
2023-02-05T01:51:23.548Z,29.38
2023-02-05T01:53:51.378Z,23.92
2023-02-05T01:56:27.076Z,36.33
2023-02-05T01:59:16.518Z,35.45
2023-02-05T02:01:44.134Z,25.80
2023-02-05T02:04:14.780Z,21.15
2023-02-05T02:06:41.778Z,26.88
2023-02-05T02:09:09.205Z,30.95
2023-02-05T02:11:41.438Z,34.95
2023-02-05T02:14:09.916Z,21.90
2023-02-05T02:16:39.080Z,32.17
2023-02-05T02:19:15.797Z,22.60
2023-02-05T02:21:58.743Z,30.10
2023-02-05T02:27:24.281Z,23.25
2023-02-05T02:30:20.700Z,29.95
2023-02-05T02:33:00.246Z,28.90
2023-02-05T02:35:47.442Z,24.23
2023-02-05T02:38:39.723Z,33.22
2023-02-05T02:41:23.522Z,40.50
2023-02-05T02:43:56.327Z,31.75
2023-02-05T02:46:33.526Z,37.30
2023-02-05T03:10:13.950Z,30.65
2023-02-05T03:12:40.892Z,37.30
2023-02-05T03:15:09.058Z,73.20
2023-02-05T03:17:36.434Z,37.78
2023-02-05T03:20:15.975Z,38.45
2023-02-05T03:22:43.076Z,45.80
2023-02-05T03:25:10.847Z,45.97
2023-02-05T03:27:39.045Z,44.85
2023-02-05T03:30:08.115Z,39.15
2023-02-05T03:32:37.006Z,33.75
2023-02-05T03:37:52.363Z,41.22
2023-02-05T03:40:23.369Z,59.05
2023-02-05T03:42:57.180Z,39.88
2023-02-05T03:45:36.464Z,43.55
2023-02-05T03:48:15.883Z,41.72
2023-02-05T03:51:20.318Z,52.83
2023-02-05T03:54:11.605Z,44.65
2023-02-05T03:56:50.547Z,51.72
2023-02-05T03:59:19.437Z,52.05
2023-02-05T04:01:47.054Z,50.88
2023-02-05T04:04:14.385Z,59.20
2023-02-05T04:06:41.356Z,41.30
2023-02-05T04:09:10.317Z,56.08
2023-02-05T04:11:38.531Z,45.80
2023-02-05T04:14:05.633Z,69.30
2023-02-05T04:16:32.756Z,63.13
2023-02-05T04:18:59.870Z,88.13
2023-02-05T04:21:26.817Z,67.32
2023-02-05T04:23:54.200Z,62.08
2023-02-05T04:26:21.209Z,70.60
2023-02-05T04:28:48.248Z,59.90
2023-02-05T04:37:19.722Z,91.53
2023-02-05T04:39:47.500Z,57.58
2023-02-05T04:42:14.468Z,101.60
2023-02-05T04:44:41.484Z,68.10
2023-02-05T04:47:08.598Z,77.32
2023-02-05T04:49:35.668Z,66.90
2023-02-05T04:52:02.754Z,70.70
2023-02-05T05:12:43.734Z,60.58
2023-02-05T05:15:11.008Z,55.10
2023-02-05T05:17:37.947Z,68.22
2023-02-05T05:20:05.265Z,50.65
2023-02-05T05:22:32.459Z,47.28
2023-02-05T05:24:59.502Z,43.05
2023-02-05T05:27:26.768Z,43.70
2023-02-05T05:29:54.104Z,41.80
2023-02-05T05:32:21.027Z,45.75
2023-02-05T05:34:48.002Z,21.65
2023-02-05T05:37:14.978Z,25.13
2023-02-05T05:40:00.438Z,24.73
2023-02-05T05:45:06.814Z,27.60
2023-02-05T05:47:33.772Z,16.85
2023-02-05T05:50:00.794Z,19.02
2023-02-05T05:52:27.759Z,15.93
2023-02-05T05:54:54.749Z,25.45
2023-02-05T05:57:21.821Z,37.58
2023-02-05T05:59:49.335Z,17.85
2023-02-05T06:02:16.478Z,20.95
2023-02-05T06:04:43.615Z,17.38
2023-02-05T06:07:10.652Z,19.23
2023-02-05T06:09:37.711Z,24.00
2023-02-05T06:12:04.737Z,13.93
2023-02-05T06:14:31.885Z,16.05
2023-02-05T06:16:59.198Z,13.43
2023-02-05T06:19:26.100Z,12.02
2023-02-05T06:21:53.037Z,6.95
2023-02-05T06:24:20.063Z,13.77
2023-02-05T06:26:47.956Z,21.63
2023-02-05T06:29:14.900Z,19.52
2023-02-05T06:31:42.038Z,16.52
2023-02-05T06:34:09.015Z,20.80
2023-02-05T06:36:35.959Z,23.38
2023-02-05T06:39:03.013Z,26.63
2023-02-05T06:41:30.228Z,26.42
2023-02-05T06:43:57.108Z,21.30
2023-02-05T06:46:24.190Z,14.70
2023-02-05T06:48:51.152Z,22.88
2023-02-05T06:51:18.128Z,16.15
2023-02-05T06:53:45.061Z,14.85
2023-02-05T06:56:12.142Z,19.83
2023-02-05T06:58:39.081Z,18.08
2023-02-05T07:01:06.082Z,13.73
2023-02-05T07:03:33.067Z,19.70
2023-02-05T07:06:06.957Z,15.43
2023-02-05T07:08:34.578Z,27.88
2023-02-05T07:11:01.704Z,20.80
2023-02-05T07:13:29.801Z,27.90
2023-02-05T07:15:56.772Z,20.27
2023-02-05T07:18:24.582Z,24.77
2023-02-05T07:20:51.586Z,17.00
2023-02-05T07:23:18.643Z,16.45
2023-02-05T07:25:46.364Z,22.13
2023-02-05T07:28:13.606Z,27.20
2023-02-05T07:30:40.684Z,28.45
2023-02-05T07:33:07.660Z,27.15
2023-02-05T07:35:37.784Z,24.58
2023-02-05T07:38:04.970Z,18.75
2023-02-05T07:40:32.364Z,22.73
2023-02-05T07:42:59.317Z,20.92
2023-02-05T07:45:26.368Z,15.85
2023-02-05T07:47:53.976Z,33.72
2023-02-05T07:50:21.089Z,28.90
2023-02-05T07:52:48.197Z,34.92
2023-02-05T07:55:15.268Z,26.73
2023-02-05T07:57:42.288Z,25.73
2023-02-05T08:00:09.866Z,22.25
2023-02-05T08:02:37.035Z,37.22
2023-02-05T08:05:04.113Z,31.17
2023-02-05T08:07:31.092Z,27.65
2023-02-05T08:09:58.043Z,37.28
2023-02-05T08:12:25.079Z,30.23
2023-02-05T08:14:52.885Z,31.60
2023-02-05T08:41:39.275Z,23.27
2023-02-05T08:44:06.348Z,30.90
2023-02-05T08:46:48.491Z,27.88
2023-02-05T08:49:17.051Z,27.20
2023-02-05T08:51:43.989Z,20.48
2023-02-05T08:54:13.275Z,33.33
2023-02-05T08:56:41.169Z,24.80
2023-02-05T08:59:09.122Z,20.85
2023-02-05T09:01:38.172Z,17.70
2023-02-05T09:04:05.408Z,18.58
2023-02-05T09:06:32.336Z,22.40
2023-02-05T09:09:00.229Z,25.55
2023-02-05T09:11:27.254Z,36.25
2023-02-05T09:13:54.361Z,17.77
2023-02-05T09:16:21.463Z,12.95
2023-02-05T09:18:48.442Z,9.27
2023-02-05T12:22:06.405Z,24.98
2023-02-05T12:24:41.122Z,27.83
2023-02-05T12:27:29.067Z,19.05
2023-02-05T12:30:26.622Z,27.67
2023-02-05T12:33:28.372Z,41.88
2023-02-05T12:36:04.774Z,31.42
2023-02-05T12:39:12.826Z,35.08
2023-02-05T12:50:53.333Z,28.73
2023-02-05T12:53:32.245Z,27.42
2023-02-05T12:56:21.602Z,32.83
2023-02-05T12:58:54.657Z,33.10
2023-02-05T13:01:29.754Z,25.77
2023-02-05T13:04:01.375Z,32.45
2023-02-05T13:06:36.945Z,36.00
2023-02-05T13:09:13.523Z,25.65
2023-02-05T13:11:51.519Z,32.38
2023-02-05T13:14:24.198Z,30.40
2023-02-05T13:17:01.819Z,27.27
2023-02-05T13:19:41.047Z,31.30
2023-02-05T13:22:55.390Z,22.25
2023-02-05T13:25:57.652Z,23.73
2023-02-05T13:28:50.895Z,26.38
2023-02-05T13:31:38.674Z,27.02
2023-02-05T13:34:11.660Z,36.65
2023-02-05T13:37:20.452Z,28.00
2023-02-05T13:40:01.015Z,29.38
2023-02-05T13:42:41.645Z,42.13
2023-02-05T13:45:35.778Z,28.60
2023-02-05T13:51:13.674Z,28.85
2023-02-05T13:54:08.767Z,29.83
2023-02-05T13:56:50.481Z,34.92
2023-02-05T13:59:40.654Z,26.60
2023-02-05T14:02:39.436Z,29.45
2023-02-05T14:05:08.402Z,36.28
2023-02-05T14:07:43.352Z,31.60
2023-02-05T14:10:30.848Z,36.80
2023-02-05T14:13:10.522Z,25.35
2023-02-05T14:15:42.981Z,29.05
2023-02-05T14:18:12.821Z,35.92
2023-02-05T14:20:42.090Z,25.50
2023-02-05T14:23:33.579Z,37.13
2023-02-05T14:26:03.630Z,36.15
2023-02-05T14:28:30.532Z,37.33
2023-02-05T14:30:59.009Z,37.10
2023-02-05T14:33:30.486Z,45.33
2023-02-05T14:36:17.436Z,39.85
2023-02-05T14:38:54.467Z,32.60
2023-02-05T14:41:45.936Z,45.05
2023-02-05T14:44:12.884Z,43.75
2023-02-05T14:47:01.068Z,34.80
2023-02-05T14:49:40.437Z,31.10
2023-02-05T14:52:22.710Z,47.08
2023-02-05T14:55:02.181Z,53.13
2023-02-05T14:57:41.286Z,38.70
2023-02-05T15:00:26.603Z,45.92
2023-02-05T15:03:05.874Z,52.58
2023-02-05T15:05:44.457Z,49.22
2023-02-05T15:08:16.985Z,47.30
2023-02-05T15:11:16.182Z,61.25
2023-02-05T15:14:03.592Z,50.33
2023-02-05T15:16:30.601Z,60.53
2023-02-05T15:19:05.015Z,55.83
2023-02-05T15:21:46.094Z,36.22
2023-02-05T15:24:17.796Z,52.05
2023-02-05T15:27:05.826Z,37.80
2023-02-05T15:29:48.877Z,48.78
2023-02-05T15:32:24.565Z,46.80
2023-02-05T15:35:14.425Z,55.40
2023-02-05T15:37:49.775Z,43.78
2023-02-05T15:40:27.366Z,51.88
2023-02-05T15:42:59.412Z,53.92
2023-02-05T15:45:28.196Z,47.72
2023-02-05T16:07:58.205Z,49.58
2023-02-05T16:10:31.315Z,42.95
2023-02-05T16:12:59.297Z,49.28
2023-02-05T16:15:56.500Z,48.88
2023-02-05T16:18:44.564Z,43.55
2023-02-05T16:21:31.557Z,47.15
2023-02-05T16:24:06.161Z,46.47
2023-02-05T16:26:43.770Z,43.15
2023-02-05T16:29:31.516Z,38.25
2023-02-05T16:32:07.757Z,57.20
2023-02-05T16:37:10.085Z,45.42
2023-02-05T16:39:46.678Z,49.20
2023-02-05T16:42:35.887Z,48.33
2023-02-05T16:45:09.271Z,40.72
2023-02-05T16:47:37.089Z,56.45
2023-02-05T16:50:43.076Z,44.40
2023-02-05T16:53:30.465Z,37.60
2023-02-05T16:56:08.271Z,41.88
2023-02-05T16:58:43.539Z,60.60
2023-02-05T17:01:14.226Z,43.17
2023-02-05T17:03:48.032Z,38.55
2023-02-05T17:06:17.178Z,44.00
2023-02-05T17:08:52.559Z,42.40
2023-02-05T17:11:42.819Z,56.70
2023-02-05T17:14:32.519Z,51.22
2023-02-05T17:17:16.406Z,57.03
2023-02-05T17:19:43.529Z,49.03
2023-02-05T17:22:19.350Z,50.67
2023-02-05T17:24:50.070Z,42.95
2023-02-05T17:27:39.380Z,38.05
2023-02-05T17:30:15.846Z,62.65
2023-02-05T17:32:43.061Z,52.50
2023-02-05T17:35:14.993Z,44.70
2023-02-05T17:37:43.801Z,37.05
2023-02-05T17:40:14.730Z,52.70
2023-02-05T17:42:41.936Z,44.58
2023-02-05T17:45:37.070Z,43.00
2023-02-05T17:48:04.508Z,45.90
2023-02-05T17:50:34.538Z,47.13
2023-02-05T17:53:02.748Z,57.40
2023-02-05T17:55:34.605Z,44.75
2023-02-05T17:58:01.914Z,52.20
2023-02-05T18:00:31.992Z,43.08
2023-02-05T18:02:59.297Z,74.97
2023-02-05T18:05:26.514Z,59.33
2023-02-05T18:07:59.843Z,47.60
2023-02-05T18:10:35.111Z,46.77
2023-02-05T18:13:03.059Z,65.78
2023-02-05T18:15:32.068Z,45.42
2023-02-05T18:17:59.034Z,56.42
2023-02-05T18:20:26.038Z,66.70
2023-02-05T18:22:53.742Z,38.85
2023-02-05T18:25:21.972Z,44.00
2023-02-05T18:27:49.151Z,62.75
2023-02-05T18:30:16.383Z,45.38
2023-02-05T18:32:43.326Z,47.67
2023-02-05T18:35:14.559Z,64.07
2023-02-05T18:37:44.041Z,51.08
2023-02-05T18:40:11.951Z,48.17
2023-02-05T18:42:41.599Z,47.83
2023-02-05T18:45:09.627Z,46.97
2023-02-05T18:47:36.875Z,59.85
2023-02-05T18:50:04.767Z,53.42
2023-02-05T18:52:31.918Z,45.53
2023-02-05T18:54:58.836Z,61.60
2023-02-05T18:57:26.188Z,69.18
2023-02-05T18:59:54.026Z,51.50
2023-02-05T19:02:21.116Z,66.97
